sensor_id;sensor_type;location;lat;lon;timestamp;pressure;altitude;pressure_sealevel;temperature;humidity
73453;BME280;61687;56.232;43.854;2024-02-26T00:01:52;102665.00;;;-4.54;46.56
73453;BME280;61687;56.232;43.854;2024-02-26T00:04:18;102661.91;;;-4.51;46.65
73453;BME280;61687;56.232;43.854;2024-02-26T00:06:44;102665.41;;;-4.44;46.61
73453;BME280;61687;56.232;43.854;2024-02-26T00:09:10;102667.03;;;-4.43;46.58
73453;BME280;61687;56.232;43.854;2024-02-26T00:11:36;102660.66;;;-4.42;46.65
73453;BME280;61687;56.232;43.854;2024-02-26T00:14:03;102654.09;;;-4.39;46.36
73453;BME280;61687;56.232;43.854;2024-02-26T00:16:29;102667.03;;;-4.50;46.62
73453;BME280;61687;56.232;43.854;2024-02-26T00:18:56;102656.56;;;-4.51;46.45
73453;BME280;61687;56.232;43.854;2024-02-26T00:21:22;102650.59;;;-4.60;46.85
73453;BME280;61687;56.232;43.854;2024-02-26T00:23:49;102657.78;;;-4.61;46.94
73453;BME280;61687;56.232;43.854;2024-02-26T00:26:16;102656.78;;;-4.66;47.46
73453;BME280;61687;56.232;43.854;2024-02-26T00:28:43;102654.91;;;-4.66;47.53
73453;BME280;61687;56.232;43.854;2024-02-26T00:31:09;102644.22;;;-4.66;47.48
73453;BME280;61687;56.232;43.854;2024-02-26T00:33:35;102642.16;;;-4.64;46.92
73453;BME280;61687;56.232;43.854;2024-02-26T00:36:01;102641.13;;;-4.69;47.38
73453;BME280;61687;56.232;43.854;2024-02-26T00:38:27;102643.59;;;-4.68;47.63
73453;BME280;61687;56.232;43.854;2024-02-26T00:40:53;102640.31;;;-4.77;47.86
73453;BME280;61687;56.232;43.854;2024-02-26T00:43:19;102635.38;;;-4.80;47.78
73453;BME280;61687;56.232;43.854;2024-02-26T00:45:45;102632.47;;;-4.78;47.31
73453;BME280;61687;56.232;43.854;2024-02-26T00:48:13;102632.69;;;-4.80;47.49
73453;BME280;61687;56.232;43.854;2024-02-26T00:50:40;102643.59;;;-4.75;47.32
73453;BME280;61687;56.232;43.854;2024-02-26T00:53:06;102642.56;;;-4.87;47.56
73453;BME280;61687;56.232;43.854;2024-02-26T00:55:32;102638.63;;;-4.91;47.55
73453;BME280;61687;56.232;43.854;2024-02-26T00:57:58;102635.34;;;-4.93;47.68
73453;BME280;61687;56.232;43.854;2024-02-26T01:00:23;102638.88;;;-4.93;47.24
73453;BME280;61687;56.232;43.854;2024-02-26T01:02:49;102631.25;;;-4.96;47.71
73453;BME280;61687;56.232;43.854;2024-02-26T01:05:15;102627.75;;;-4.96;47.52
73453;BME280;61687;56.232;43.854;2024-02-26T01:07:44;102639.88;;;-5.07;47.83
73453;BME280;61687;56.232;43.854;2024-02-26T01:10:10;102633.69;;;-5.14;48.17
73453;BME280;61687;56.232;43.854;2024-02-26T01:12:36;102635.50;;;-5.22;48.71
73453;BME280;61687;56.232;43.854;2024-02-26T01:15:03;102627.72;;;-5.23;48.62
73453;BME280;61687;56.232;43.854;2024-02-26T01:17:32;102632.66;;;-5.20;48.54
73453;BME280;61687;56.232;43.854;2024-02-26T01:19:59;102625.88;;;-5.16;48.31
73453;BME280;61687;56.232;43.854;2024-02-26T01:22:25;102628.97;;;-5.12;48.23
73453;BME280;61687;56.232;43.854;2024-02-26T01:24:51;102624.84;;;-5.15;48.43
73453;BME280;61687;56.232;43.854;2024-02-26T01:27:17;102626.09;;;-5.18;48.44
73453;BME280;61687;56.232;43.854;2024-02-26T01:29:44;102621.75;;;-5.25;48.62
73453;BME280;61687;56.232;43.854;2024-02-26T01:32:10;102622.97;;;-5.28;49.13
73453;BME280;61687;56.232;43.854;2024-02-26T01:34:36;102631.81;;;-5.27;49.37
73453;BME280;61687;56.232;43.854;2024-02-26T01:37:02;102615.59;;;-5.19;48.68
73453;BME280;61687;56.232;43.854;2024-02-26T01:39:28;102617.22;;;-5.18;48.79
73453;BME280;61687;56.232;43.854;2024-02-26T01:41:56;102610.03;;;-5.18;48.79
73453;BME280;61687;56.232;43.854;2024-02-26T01:44:22;102612.50;;;-5.16;48.80
73453;BME280;61687;56.232;43.854;2024-02-26T01:46:49;102602.22;;;-5.19;48.74
73453;BME280;61687;56.232;43.854;2024-02-26T01:49:15;102605.91;;;-5.20;49.04
73453;BME280;61687;56.232;43.854;2024-02-26T01:51:43;102600.97;;;-5.23;48.88
73453;BME280;61687;56.232;43.854;2024-02-26T01:54:09;102600.38;;;-5.19;49.07
73453;BME280;61687;56.232;43.854;2024-02-26T01:56:37;102597.91;;;-5.20;48.89
73453;BME280;61687;56.232;43.854;2024-02-26T01:59:05;102602.63;;;-5.22;49.00
73453;BME280;61687;56.232;43.854;2024-02-26T02:01:33;102609.59;;;-5.28;49.42
73453;BME280;61687;56.232;43.854;2024-02-26T02:04:00;102601.59;;;-5.21;49.21
73453;BME280;61687;56.232;43.854;2024-02-26T02:06:27;102598.09;;;-5.22;49.20
73453;BME280;61687;56.232;43.854;2024-02-26T02:08:56;102608.41;;;-5.19;49.15
73453;BME280;61687;56.232;43.854;2024-02-26T02:11:22;102606.75;;;-5.20;49.25
73453;BME280;61687;56.232;43.854;2024-02-26T02:13:49;102606.75;;;-5.20;49.06
73453;BME280;61687;56.232;43.854;2024-02-26T02:16:15;102602.03;;;-5.18;49.15
73453;BME280;61687;56.232;43.854;2024-02-26T02:18:41;102612.50;;;-5.16;49.15
73453;BME280;61687;56.232;43.854;2024-02-26T02:21:08;102606.13;;;-5.15;49.25
73453;BME280;61687;56.232;43.854;2024-02-26T02:23:33;102609.00;;;-5.10;48.72
73453;BME280;61687;56.232;43.854;2024-02-26T02:26:00;102601.41;;;-5.13;48.98
73453;BME280;61687;56.232;43.854;2024-02-26T02:28:27;102601.19;;;-5.11;49.38
73453;BME280;61687;56.232;43.854;2024-02-26T02:30:54;102600.59;;;-5.13;49.54
73453;BME280;61687;56.232;43.854;2024-02-26T02:33:21;102603.47;;;-5.08;49.49
73453;BME280;61687;56.232;43.854;2024-02-26T02:35:48;102604.06;;;-5.06;49.48
73453;BME280;61687;56.232;43.854;2024-02-26T02:38:16;102605.31;;;-5.02;49.55
73453;BME280;61687;56.232;43.854;2024-02-26T02:40:42;102607.16;;;-5.09;49.77
73453;BME280;61687;56.232;43.854;2024-02-26T02:43:08;102603.88;;;-5.11;49.89
73453;BME280;61687;56.232;43.854;2024-02-26T02:45:34;102601.63;;;-5.08;49.45
73453;BME280;61687;56.232;43.854;2024-02-26T02:48:00;102599.16;;;-5.09;49.58
73453;BME280;61687;56.232;43.854;2024-02-26T02:50:26;102601.41;;;-5.06;49.61
73453;BME280;61687;56.232;43.854;2024-02-26T02:52:54;102599.16;;;-5.03;49.52
73453;BME280;61687;56.232;43.854;2024-02-26T02:55:20;102590.91;;;-4.94;48.88
73453;BME280;61687;56.232;43.854;2024-02-26T02:57:46;102602.03;;;-4.91;48.66
73453;BME280;61687;56.232;43.854;2024-02-26T03:00:12;102592.38;;;-4.92;48.68
73453;BME280;61687;56.232;43.854;2024-02-26T03:02:38;102587.03;;;-4.85;48.58
73453;BME280;61687;56.232;43.854;2024-02-26T03:05:05;102591.34;;;-4.77;48.29
73453;BME280;61687;56.232;43.854;2024-02-26T03:07:31;102590.91;;;-4.88;48.48
73453;BME280;61687;56.232;43.854;2024-02-26T03:09:57;102592.16;;;-4.83;48.50
73453;BME280;61687;56.232;43.854;2024-02-26T03:12:23;102597.09;;;-4.80;48.42
73453;BME280;61687;56.232;43.854;2024-02-26T03:14:49;102594.22;;;-4.72;48.20
73453;BME280;61687;56.232;43.854;2024-02-26T03:17:15;102594.59;;;-4.68;48.26
73453;BME280;61687;56.232;43.854;2024-02-26T03:19:41;102594.59;;;-4.62;47.78
73453;BME280;61687;56.232;43.854;2024-02-26T03:22:07;102585.53;;;-4.61;47.71
73453;BME280;61687;56.232;43.854;2024-02-26T03:24:33;102603.03;;;-4.58;47.93
73453;BME280;61687;56.232;43.854;2024-02-26T03:26:59;102593.38;;;-4.59;47.98
73453;BME280;61687;56.232;43.854;2024-02-26T03:29:25;102590.47;;;-4.57;48.16
73453;BME280;61687;56.232;43.854;2024-02-26T03:31:51;102588.44;;;-4.55;48.06
73453;BME280;61687;56.232;43.854;2024-02-26T03:34:17;102590.09;;;-4.54;48.01
73453;BME280;61687;56.232;43.854;2024-02-26T03:36:45;102604.25;;;-4.47;48.13
73453;BME280;61687;56.232;43.854;2024-02-26T03:39:11;102589.66;;;-4.51;47.82
73453;BME280;61687;56.232;43.854;2024-02-26T03:41:37;102601.41;;;-4.46;47.85
73453;BME280;61687;56.232;43.854;2024-02-26T03:44:03;102605.50;;;-4.43;47.72
73453;BME280;61687;56.232;43.854;2024-02-26T03:46:29;102597.47;;;-4.43;48.03
73453;BME280;61687;56.232;43.854;2024-02-26T03:48:55;102606.09;;;-4.41;48.12
73453;BME280;61687;56.232;43.854;2024-02-26T03:51:21;102607.13;;;-4.42;48.30
73453;BME280;61687;56.232;43.854;2024-02-26T03:53:47;102605.50;;;-4.43;48.44
73453;BME280;61687;56.232;43.854;2024-02-26T03:56:14;102601.97;;;-4.37;47.96
73453;BME280;61687;56.232;43.854;2024-02-26T03:58:40;102608.78;;;-4.41;48.27
73453;BME280;61687;56.232;43.854;2024-02-26T04:01:09;102608.56;;;-4.33;48.16
73453;BME280;61687;56.232;43.854;2024-02-26T04:03:35;102604.25;;;-4.34;48.16
73453;BME280;61687;56.232;43.854;2024-02-26T04:06:02;102608.78;;;-4.34;48.18
73453;BME280;61687;56.232;43.854;2024-02-26T04:08:29;102604.63;;;-4.30;48.55
73453;BME280;61687;56.232;43.854;2024-02-26T04:10:55;102610.41;;;-4.26;47.97
73453;BME280;61687;56.232;43.854;2024-02-26T04:13:21;102608.53;;;-4.26;48.06
73453;BME280;61687;56.232;43.854;2024-02-26T04:15:47;102614.53;;;-4.24;48.36
73453;BME280;61687;56.232;43.854;2024-02-26T04:18:13;102613.69;;;-4.18;48.39
73453;BME280;61687;56.232;43.854;2024-02-26T04:20:40;102608.69;;;-4.14;48.07
73453;BME280;61687;56.232;43.854;2024-02-26T04:23:08;102608.31;;;-4.11;48.07
73453;BME280;61687;56.232;43.854;2024-02-26T04:25:34;102612.22;;;-4.07;47.84
73453;BME280;61687;56.232;43.854;2024-02-26T04:28:00;102607.88;;;-4.08;47.56
73453;BME280;61687;56.232;43.854;2024-02-26T04:30:26;102613.06;;;-4.20;47.84
73453;BME280;61687;56.232;43.854;2024-02-26T04:32:52;102612.84;;;-4.18;48.09
73453;BME280;61687;56.232;43.854;2024-02-26T04:35:18;102612.66;;;-4.17;48.20
73453;BME280;61687;56.232;43.854;2024-02-26T04:37:44;102614.47;;;-4.10;48.19
73453;BME280;61687;56.232;43.854;2024-02-26T04:40:10;102624.97;;;-4.09;48.20
73453;BME280;61687;56.232;43.854;2024-02-26T04:42:36;102623.94;;;-4.01;48.12
73453;BME280;61687;56.232;43.854;2024-02-26T04:45:02;102625.78;;;-4.02;48.53
73453;BME280;61687;56.232;43.854;2024-02-26T04:47:30;102618.34;;;-3.99;48.68
73453;BME280;61687;56.232;43.854;2024-02-26T04:49:55;102618.13;;;-3.91;48.06
73453;BME280;61687;56.232;43.854;2024-02-26T04:52:21;102625.34;;;-3.92;48.11
73453;BME280;61687;56.232;43.854;2024-02-26T04:54:47;102616.50;;;-3.92;48.25
73453;BME280;61687;56.232;43.854;2024-02-26T04:57:13;102620.75;;;-3.84;48.17
73453;BME280;61687;56.232;43.854;2024-02-26T04:59:39;102627.13;;;-3.79;47.97
73453;BME280;61687;56.232;43.854;2024-02-26T05:02:08;102616.41;;;-3.79;47.54
73453;BME280;61687;56.232;43.854;2024-02-26T05:04:34;102620.53;;;-3.69;47.33
73453;BME280;61687;56.232;43.854;2024-02-26T05:07:00;102630.19;;;-3.68;47.66
73453;BME280;61687;56.232;43.854;2024-02-26T05:09:25;102632.00;;;-3.62;47.57
73453;BME280;61687;56.232;43.854;2024-02-26T05:11:51;102629.13;;;-3.61;47.47
73453;BME280;61687;56.232;43.854;2024-02-26T05:14:17;102623.34;;;-3.57;47.47
73453;BME280;61687;56.232;43.854;2024-02-26T05:16:43;102628.47;;;-3.56;47.53
73453;BME280;61687;56.232;43.854;2024-02-26T05:19:09;102636.31;;;-3.54;47.54
73453;BME280;61687;56.232;43.854;2024-02-26T05:21:35;102636.28;;;-3.48;47.53
73453;BME280;61687;56.232;43.854;2024-02-26T05:24:01;102633.81;;;-3.49;47.70
73453;BME280;61687;56.232;43.854;2024-02-26T05:26:27;102634.81;;;-3.43;47.07
73453;BME280;61687;56.232;43.854;2024-02-26T05:28:52;102634.22;;;-3.46;46.90
73453;BME280;61687;56.232;43.854;2024-02-26T05:31:18;102638.72;;;-3.46;47.23
73453;BME280;61687;56.232;43.854;2024-02-26T05:33:44;102630.06;;;-3.41;47.46
73453;BME280;61687;56.232;43.854;2024-02-26T05:36:18;102635.75;;;-3.31;46.92
73453;BME280;61687;56.232;43.854;2024-02-26T05:38:45;102634.09;;;-3.25;46.85
73453;BME280;61687;56.232;43.854;2024-02-26T05:41:12;102634.22;;;-3.13;47.08
73453;BME280;61687;56.232;43.854;2024-02-26T05:43:38;102637.84;;;-3.01;46.21
73453;BME280;61687;56.232;43.854;2024-02-26T05:46:04;102631.44;;;-3.00;45.50
73453;BME280;61687;56.232;43.854;2024-02-26T05:48:29;102634.78;;;-3.05;45.71
73453;BME280;61687;56.232;43.854;2024-02-26T05:50:57;102637.84;;;-3.01;45.78
73453;BME280;61687;56.232;43.854;2024-02-26T05:53:23;102641.75;;;-2.97;45.89
73453;BME280;61687;56.232;43.854;2024-02-26T05:55:49;102636.97;;;-2.95;46.18
73453;BME280;61687;56.232;43.854;2024-02-26T05:58:15;102639.81;;;-2.90;45.56
73453;BME280;61687;56.232;43.854;2024-02-26T06:00:41;102637.53;;;-2.86;45.36
73453;BME280;61687;56.232;43.854;2024-02-26T06:03:07;102635.13;;;-2.94;45.18
73453;BME280;61687;56.232;43.854;2024-02-26T06:05:32;102630.81;;;-2.95;45.47
73453;BME280;61687;56.232;43.854;2024-02-26T06:07:58;102639.22;;;-2.92;45.47
73453;BME280;61687;56.232;43.854;2024-02-26T06:10:24;102638.56;;;-2.87;45.44
73453;BME280;61687;56.232;43.854;2024-02-26T06:12:50;102629.91;;;-2.89;45.80
73453;BME280;61687;56.232;43.854;2024-02-26T06:15:16;102629.88;;;-2.82;45.83
73453;BME280;61687;56.232;43.854;2024-02-26T06:17:42;102631.22;;;-2.73;45.61
73453;BME280;61687;56.232;43.854;2024-02-26T06:20:08;102634.31;;;-2.69;45.46
73453;BME280;61687;56.232;43.854;2024-02-26T06:22:40;102627.06;;;-2.69;45.15
73453;BME280;61687;56.232;43.854;2024-02-26T06:25:07;102629.31;;;-2.66;45.30
73453;BME280;61687;56.232;43.854;2024-02-26T06:27:33;102627.16;;;-2.57;45.15
73453;BME280;61687;56.232;43.854;2024-02-26T06:29:58;102634.72;;;-2.47;45.27
73453;BME280;61687;56.232;43.854;2024-02-26T06:32:24;102629.88;;;-2.38;45.11
73453;BME280;61687;56.232;43.854;2024-02-26T06:34:52;102627.78;;;-2.36;44.91
73453;BME280;61687;56.232;43.854;2024-02-26T06:37:18;102621.75;;;-2.32;44.33
73453;BME280;61687;56.232;43.854;2024-02-26T06:39:44;102617.44;;;-2.33;44.64
73453;BME280;61687;56.232;43.854;2024-02-26T06:42:10;102621.22;;;-2.40;44.22
73453;BME280;61687;56.232;43.854;2024-02-26T06:44:36;102617.94;;;-2.42;44.56
73453;BME280;61687;56.232;43.854;2024-02-26T06:47:02;102623.72;;;-2.39;44.48
73453;BME280;61687;56.232;43.854;2024-02-26T06:49:28;102626.66;;;-2.47;44.74
73453;BME280;61687;56.232;43.854;2024-02-26T06:51:54;102629.22;;;-2.34;44.68
73453;BME280;61687;56.232;43.854;2024-02-26T06:54:20;102618.56;;;-2.22;44.64
73453;BME280;61687;56.232;43.854;2024-02-26T06:56:46;102630.44;;;-2.11;44.37
73453;BME280;61687;56.232;43.854;2024-02-26T06:59:12;102624.41;;;-2.06;44.12
73453;BME280;61687;56.232;43.854;2024-02-26T07:01:41;102629.38;;;-2.10;43.85
73453;BME280;61687;56.232;43.854;2024-02-26T07:04:07;102621.47;;;-2.23;44.33
73453;BME280;61687;56.232;43.854;2024-02-26T07:06:33;102632.00;;;-2.22;44.43
73453;BME280;61687;56.232;43.854;2024-02-26T07:08:59;102623.56;;;-2.07;44.52
73453;BME280;61687;56.232;43.854;2024-02-26T07:11:24;102622.06;;;-2.03;44.43
73453;BME280;61687;56.232;43.854;2024-02-26T07:13:50;102620.94;;;-1.95;44.05
73453;BME280;61687;56.232;43.854;2024-02-26T07:16:16;102617.06;;;-1.99;43.78
73453;BME280;61687;56.232;43.854;2024-02-26T07:18:42;102626.56;;;-1.96;44.20
73453;BME280;61687;56.232;43.854;2024-02-26T07:21:14;102624.81;;;-1.72;44.10
73453;BME280;61687;56.232;43.854;2024-02-26T07:23:40;102628.22;;;-1.46;43.77
73453;BME280;61687;56.232;43.854;2024-02-26T07:26:06;102626.50;;;-1.28;43.27
73453;BME280;61687;56.232;43.854;2024-02-26T07:28:34;102621.50;;;-1.13;43.00
73453;BME280;61687;56.232;43.854;2024-02-26T07:31:00;102625.75;;;-1.05;43.00
73453;BME280;61687;56.232;43.854;2024-02-26T07:33:26;102623.63;;;-1.03;43.01
73453;BME280;61687;56.232;43.854;2024-02-26T07:35:51;102624.97;;;-0.94;43.30
73453;BME280;61687;56.232;43.854;2024-02-26T07:38:19;102632.56;;;-0.91;43.19
73453;BME280;61687;56.232;43.854;2024-02-26T07:40:45;102628.47;;;-0.93;43.10
73453;BME280;61687;56.232;43.854;2024-02-26T07:43:11;102626.59;;;-0.93;43.41
73453;BME280;61687;56.232;43.854;2024-02-26T07:45:37;102615.47;;;-0.96;43.52
73453;BME280;61687;56.232;43.854;2024-02-26T07:48:03;102619.22;;;-0.85;43.61
73453;BME280;61687;56.232;43.854;2024-02-26T07:50:29;102615.84;;;-0.81;43.65
73453;BME280;61687;56.232;43.854;2024-02-26T07:52:54;102619.81;;;-0.83;43.36
73453;BME280;61687;56.232;43.854;2024-02-26T07:55:20;102628.25;;;-0.92;43.38
73453;BME280;61687;56.232;43.854;2024-02-26T07:57:47;102614.97;;;-1.05;44.08
73453;BME280;61687;56.232;43.854;2024-02-26T08:00:14;102620.63;;;-0.95;44.50
73453;BME280;61687;56.232;43.854;2024-02-26T08:02:43;102617.00;;;-0.89;44.23
73453;BME280;61687;56.232;43.854;2024-02-26T08:05:10;102619.47;;;-0.75;44.15
73453;BME280;61687;56.232;43.854;2024-02-26T08:07:35;102612.59;;;-0.59;43.70
73453;BME280;61687;56.232;43.854;2024-02-26T08:10:01;102613.03;;;-0.38;43.74
73453;BME280;61687;56.232;43.854;2024-02-26T08:12:28;102615.25;;;-0.35;43.74
73453;BME280;61687;56.232;43.854;2024-02-26T08:14:54;102604.00;;;-0.32;43.68
73453;BME280;61687;56.232;43.854;2024-02-26T08:17:21;102616.88;;;-0.22;43.76
73453;BME280;61687;56.232;43.854;2024-02-26T08:19:47;102607.38;;;-0.13;43.52
73453;BME280;61687;56.232;43.854;2024-02-26T08:22:13;102604.53;;;-0.06;43.36
73453;BME280;61687;56.232;43.854;2024-02-26T08:24:42;102598.63;;;0.09;43.16
73453;BME280;61687;56.232;43.854;2024-02-26T08:27:08;102596.56;;;0.11;43.13
73453;BME280;61687;56.232;43.854;2024-02-26T08:29:34;102598.38;;;0.22;43.00
73453;BME280;61687;56.232;43.854;2024-02-26T08:32:00;102593.38;;;0.14;42.54
73453;BME280;61687;56.232;43.854;2024-02-26T08:34:26;102601.25;;;0.04;43.10
73453;BME280;61687;56.232;43.854;2024-02-26T08:36:52;102591.38;;;0.09;42.99
73453;BME280;61687;56.232;43.854;2024-02-26T08:39:18;102593.06;;;0.27;43.09
73453;BME280;61687;56.232;43.854;2024-02-26T08:41:44;102590.09;;;0.41;42.73
73453;BME280;61687;56.232;43.854;2024-02-26T08:44:10;102580.88;;;0.54;42.63
73453;BME280;61687;56.232;43.854;2024-02-26T08:46:37;102588.84;;;0.61;42.69
73453;BME280;61687;56.232;43.854;2024-02-26T08:49:03;102584.28;;;0.78;42.68
73453;BME280;61687;56.232;43.854;2024-02-26T08:51:29;102588.63;;;0.79;42.33
73453;BME280;61687;56.232;43.854;2024-02-26T08:53:55;102589.25;;;0.87;42.60
73453;BME280;61687;56.232;43.854;2024-02-26T08:56:21;102588.19;;;0.88;42.49
73453;BME280;61687;56.232;43.854;2024-02-26T08:58:47;102581.16;;;0.87;42.18
73453;BME280;61687;56.232;43.854;2024-02-26T09:01:19;102582.38;;;0.79;42.62
73453;BME280;61687;56.232;43.854;2024-02-26T09:03:45;102591.88;;;0.98;42.54
73453;BME280;61687;56.232;43.854;2024-02-26T09:06:11;102588.59;;;1.13;42.23
73453;BME280;61687;56.232;43.854;2024-02-26T09:08:40;102581.97;;;1.21;41.94
73453;BME280;61687;56.232;43.854;2024-02-26T09:11:05;102573.28;;;1.19;42.21
73453;BME280;61687;56.232;43.854;2024-02-26T09:13:32;102572.00;;;1.22;41.72
73453;BME280;61687;56.232;43.854;2024-02-26T09:15:58;102575.66;;;1.16;41.89
73453;BME280;61687;56.232;43.854;2024-02-26T09:18:24;102576.84;;;1.20;42.13
73453;BME280;61687;56.232;43.854;2024-02-26T09:20:50;102576.47;;;1.33;42.03
73453;BME280;61687;56.232;43.854;2024-02-26T09:23:16;102569.09;;;1.46;41.59
73453;BME280;61687;56.232;43.854;2024-02-26T09:25:42;102567.06;;;1.58;41.25
73453;BME280;61687;56.232;43.854;2024-02-26T09:28:08;102567.16;;;1.63;41.30
73453;BME280;61687;56.232;43.854;2024-02-26T09:30:34;102577.72;;;1.65;41.07
73453;BME280;61687;56.232;43.854;2024-02-26T09:33:00;102572.13;;;1.71;41.40
73453;BME280;61687;56.232;43.854;2024-02-26T09:35:25;102563.16;;;1.88;41.36
73453;BME280;61687;56.232;43.854;2024-02-26T09:37:52;102567.22;;;2.13;40.93
73453;BME280;61687;56.232;43.854;2024-02-26T09:40:19;102560.78;;;2.19;39.97
73453;BME280;61687;56.232;43.854;2024-02-26T09:42:45;102563.03;;;2.27;39.82
73453;BME280;61687;56.232;43.854;2024-02-26T09:45:18;102564.00;;;2.16;39.72
73453;BME280;61687;56.232;43.854;2024-02-26T09:47:44;102561.00;;;2.12;39.90
73453;BME280;61687;56.232;43.854;2024-02-26T09:50:11;102560.91;;;2.07;40.12
73453;BME280;61687;56.232;43.854;2024-02-26T09:52:41;102566.25;;;2.24;39.79
73453;BME280;61687;56.232;43.854;2024-02-26T09:55:08;102556.69;;;2.44;38.87
73453;BME280;61687;56.232;43.854;2024-02-26T09:57:37;102558.81;;;2.69;38.81
73453;BME280;61687;56.232;43.854;2024-02-26T10:00:04;102552.22;;;2.88;37.97
73453;BME280;61687;56.232;43.854;2024-02-26T10:02:35;102547.19;;;3.07;37.99
73453;BME280;61687;56.232;43.854;2024-02-26T10:05:03;102538.41;;;3.32;37.94
73453;BME280;61687;56.232;43.854;2024-02-26T10:07:32;102536.03;;;3.41;37.04
73453;BME280;61687;56.232;43.854;2024-02-26T10:09:58;102537.13;;;3.45;36.32
73453;BME280;61687;56.232;43.854;2024-02-26T10:12:25;102538.00;;;3.61;36.23
73453;BME280;61687;56.232;43.854;2024-02-26T10:14:53;102535.44;;;3.97;36.02
73453;BME280;61687;56.232;43.854;2024-02-26T10:17:20;102536.88;;;4.52;35.54
73453;BME280;61687;56.232;43.854;2024-02-26T10:19:45;102530.63;;;4.82;34.27
73453;BME280;61687;56.232;43.854;2024-02-26T10:22:11;102527.91;;;4.77;33.78
73453;BME280;61687;56.232;43.854;2024-02-26T10:24:37;102526.03;;;4.67;34.22
73453;BME280;61687;56.232;43.854;2024-02-26T10:27:03;102526.03;;;4.72;34.43
73453;BME280;61687;56.232;43.854;2024-02-26T10:29:31;102525.22;;;4.56;34.12
73453;BME280;61687;56.232;43.854;2024-02-26T10:31:57;102531.16;;;4.22;34.44
73453;BME280;61687;56.232;43.854;2024-02-26T10:34:23;102525.44;;;4.08;35.36
73453;BME280;61687;56.232;43.854;2024-02-26T10:36:49;102531.94;;;4.07;35.04
73453;BME280;61687;56.232;43.854;2024-02-26T10:39:15;102528.94;;;3.98;35.23
73453;BME280;61687;56.232;43.854;2024-02-26T10:41:44;102518.63;;;3.95;35.17
73453;BME280;61687;56.232;43.854;2024-02-26T10:44:11;102522.91;;;3.86;35.49
73453;BME280;61687;56.232;43.854;2024-02-26T10:46:40;102512.00;;;3.65;35.07
73453;BME280;61687;56.232;43.854;2024-02-26T10:49:13;102519.75;;;3.41;35.51
73453;BME280;61687;56.232;43.854;2024-02-26T10:51:43;102525.91;;;3.26;35.57
73453;BME280;61687;56.232;43.854;2024-02-26T10:54:12;102518.56;;;3.21;35.87
73453;BME280;61687;56.232;43.854;2024-02-26T10:56:42;102516.97;;;3.25;36.23
73453;BME280;61687;56.232;43.854;2024-02-26T10:59:12;102515.16;;;3.41;36.40
73453;BME280;61687;56.232;43.854;2024-02-26T11:01:39;102520.06;;;3.50;35.77
73453;BME280;61687;56.232;43.854;2024-02-26T11:04:08;102513.53;;;3.46;35.33
73453;BME280;61687;56.232;43.854;2024-02-26T11:06:36;102517.31;;;3.39;35.30
73453;BME280;61687;56.232;43.854;2024-02-26T11:09:02;102511.25;;;3.27;35.20
73453;BME280;61687;56.232;43.854;2024-02-26T11:11:32;102505.72;;;3.06;35.22
73453;BME280;61687;56.232;43.854;2024-02-26T11:14:01;102502.75;;;3.03;35.31
73453;BME280;61687;56.232;43.854;2024-02-26T11:16:30;102508.19;;;3.08;36.06
73453;BME280;61687;56.232;43.854;2024-02-26T11:18:57;102489.28;;;3.18;35.26
73453;BME280;61687;56.232;43.854;2024-02-26T11:21:23;102499.09;;;3.29;35.37
73453;BME280;61687;56.232;43.854;2024-02-26T11:24:06;102497.78;;;3.32;35.12
73453;BME280;61687;56.232;43.854;2024-02-26T11:26:36;102495.53;;;3.24;35.49
73453;BME280;61687;56.232;43.854;2024-02-26T11:29:05;102496.69;;;3.33;35.43
73453;BME280;61687;56.232;43.854;2024-02-26T11:31:33;102491.72;;;3.14;35.26
73453;BME280;61687;56.232;43.854;2024-02-26T11:33:59;102495.38;;;2.93;35.71
73453;BME280;61687;56.232;43.854;2024-02-26T11:36:25;102499.81;;;2.71;35.99
73453;BME280;61687;56.232;43.854;2024-02-26T11:38:51;102496.41;;;2.54;36.30
73453;BME280;61687;56.232;43.854;2024-02-26T11:41:18;102497.59;;;2.31;36.33
73453;BME280;61687;56.232;43.854;2024-02-26T11:44:01;102497.44;;;2.15;36.80
73453;BME280;61687;56.232;43.854;2024-02-26T11:46:28;102497.44;;;2.15;36.85
73453;BME280;61687;56.232;43.854;2024-02-26T11:49:03;102492.06;;;2.20;37.22
73453;BME280;61687;56.232;43.854;2024-02-26T11:51:51;102491.06;;;2.26;36.65
73453;BME280;61687;56.232;43.854;2024-02-26T11:54:56;102491.59;;;2.23;37.13
73453;BME280;61687;56.232;43.854;2024-02-26T11:57:27;102487.69;;;2.41;37.53
73453;BME280;61687;56.232;43.854;2024-02-26T11:59:54;102488.47;;;2.42;36.68
73453;BME280;61687;56.232;43.854;2024-02-26T12:02:47;102488.81;;;2.18;37.26
73453;BME280;61687;56.232;43.854;2024-02-26T12:07:47;102479.50;;;2.04;37.93
73453;BME280;61687;56.232;43.854;2024-02-26T12:10:27;102477.19;;;1.90;37.63
73453;BME280;61687;56.232;43.854;2024-02-26T12:12:58;102482.59;;;1.90;37.79
73453;BME280;61687;56.232;43.854;2024-02-26T12:15:30;102476.66;;;1.93;37.63
73453;BME280;61687;56.232;43.854;2024-02-26T12:17:56;102478.22;;;1.84;37.91
73453;BME280;61687;56.232;43.854;2024-02-26T12:20:22;102470.13;;;1.89;37.78
73453;BME280;61687;56.232;43.854;2024-02-26T12:22:49;102470.03;;;2.06;37.73
73453;BME280;61687;56.232;43.854;2024-02-26T12:25:20;102474.38;;;2.40;37.12
73453;BME280;61687;56.232;43.854;2024-02-26T12:27:46;102474.59;;;2.33;36.83
73453;BME280;61687;56.232;43.854;2024-02-26T12:30:12;102476.19;;;2.29;37.27
73453;BME280;61687;56.232;43.854;2024-02-26T12:32:38;102472.47;;;2.35;37.20
73453;BME280;61687;56.232;43.854;2024-02-26T12:35:05;102476.03;;;2.41;37.15
73453;BME280;61687;56.232;43.854;2024-02-26T12:37:32;102475.47;;;2.39;37.01
73453;BME280;61687;56.232;43.854;2024-02-26T12:39:58;102471.22;;;2.48;37.19
73453;BME280;61687;56.232;43.854;2024-02-26T12:42:24;102479.03;;;2.45;37.00
73453;BME280;61687;56.232;43.854;2024-02-26T12:44:50;102475.84;;;2.53;36.92